地図

経路データ

SID SEASON NUMBER BASIN SUBBASIN NAME ISO_TIME NATURE LAT LON WMO_WIND WMO_PRES WMO_AGENCY TRACK_TYPE DIST2LAND LANDFALL IFLAG USA_AGENCY USA_ATCF_ID USA_LAT USA_LON USA_RECORD USA_STATUS USA_WIND USA_PRES USA_SSHS USA_R34_NE USA_R34_SE USA_R34_SW USA_R34_NW USA_R50_NE USA_R50_SE USA_R50_SW USA_R50_NW USA_R64_NE USA_R64_SE USA_R64_SW USA_R64_NW USA_POCI USA_ROCI USA_RMW USA_EYE TOKYO_LAT TOKYO_LON TOKYO_GRADE TOKYO_WIND TOKYO_PRES TOKYO_R50_DIR TOKYO_R50_LONG TOKYO_R50_SHORT TOKYO_R30_DIR TOKYO_R30_LONG TOKYO_R30_SHORT TOKYO_LAND CMA_LAT CMA_LON CMA_CAT CMA_WIND CMA_PRES HKO_LAT HKO_LON HKO_CAT HKO_WIND HKO_PRES NEWDELHI_LAT NEWDELHI_LON NEWDELHI_GRADE NEWDELHI_WIND NEWDELHI_PRES NEWDELHI_CI NEWDELHI_DP NEWDELHI_POCI REUNION_LAT REUNION_LON REUNION_TYPE REUNION_WIND REUNION_PRES REUNION_TNUM REUNION_CI REUNION_RMW REUNION_R34_NE REUNION_R34_SE REUNION_R34_SW REUNION_R34_NW REUNION_R50_NE REUNION_R50_SE REUNION_R50_SW REUNION_R50_NW REUNION_R64_NE REUNION_R64_SE REUNION_R64_SW REUNION_R64_NW BOM_LAT BOM_LON BOM_TYPE BOM_WIND BOM_PRES BOM_TNUM BOM_CI BOM_RMW BOM_R34_NE BOM_R34_SE BOM_R34_SW BOM_R34_NW BOM_R50_NE BOM_R50_SE BOM_R50_SW BOM_R50_NW BOM_R64_NE BOM_R64_SE BOM_R64_SW BOM_R64_NW BOM_ROCI BOM_POCI BOM_EYE BOM_POS_METHOD BOM_PRES_METHOD NADI_LAT NADI_LON NADI_CAT NADI_WIND NADI_PRES WELLINGTON_LAT WELLINGTON_LON WELLINGTON_WIND WELLINGTON_PRES DS824_LAT DS824_LON DS824_STAGE DS824_WIND DS824_PRES TD9636_LAT TD9636_LON TD9636_STAGE TD9636_WIND TD9636_PRES TD9635_LAT TD9635_LON TD9635_WIND TD9635_PRES TD9635_ROCI NEUMANN_LAT NEUMANN_LON NEUMANN_CLASS NEUMANN_WIND NEUMANN_PRES MLC_LAT MLC_LON MLC_CLASS MLC_WIND MLC_PRES USA_GUST BOM_GUST BOM_GUST_PER REUNION_GUST REUNION_GUST_PER USA_SEAHGT USA_SEARAD_NE USA_SEARAD_SE USA_SEARAD_SW USA_SEARAD_NW STORM_SPEED STORM_DIR
1863046S15073 1863 8 SI MM NOT_NAMED 1863-02-14 18:00:00 NR -14.9000 72.5000 main 1670 1577 __________O___ -1 -14.9000 72.5000 7 18 265
1863046S15073 1863 8 SI MM NOT_NAMED 1863-02-14 21:00:00 NR -14.9735 71.5817 main 1577 1489 __________P___ -1 -14.9735 71.5817 7 18 265
1863046S15073 1863 8 SI MM NOT_NAMED 1863-02-15 00:00:00 NR -15.0460 70.6803 main 1489 1407 __________P___ -1 -15.0460 70.6803 7 17 265
1863046S15073 1863 8 SI MM NOT_NAMED 1863-02-15 03:00:00 NR -15.1205 69.8138 main 1397 1315 __________P___ -1 -15.1205 69.8138 7 16 265
1863046S15073 1863 8 SI MM NOT_NAMED 1863-02-15 06:00:00 NR -15.2000 69.0000 main 1315 1244 __________O___ -1 -15.2000 69.0000 7 15 264
1863046S15073 1863 8 SI MM NOT_NAMED 1863-02-15 09:00:00 NR -15.2875 68.2512 main 1244 1172 __________P___ -1 -15.2875 68.2512 7 14 262
1863046S15073 1863 8 SI MM NOT_NAMED 1863-02-15 12:00:00 NR -15.3835 67.5600 main 1172 1101 __________P___ -1 -15.3835 67.5600 7 13 261
1863046S15073 1863 8 SI MM NOT_NAMED 1863-02-15 15:00:00 NR -15.4878 66.9137 main 1101 1040 __________P___ -1 -15.4878 66.9137 7 12 260
1863046S15073 1863 8 SI MM NOT_NAMED 1863-02-15 18:00:00 NR -15.6000 66.3000 main 1040 988 __________O___ -1 -15.6000 66.3000 7 11 260
1863046S15073 1863 8 SI MM NOT_NAMED 1863-02-15 21:00:00 NR -15.6875 65.7437 main 979 927 __________P___ -1 -15.6875 65.7437 7 11 260
1863046S15073 1863 8 SI MM NOT_NAMED 1863-02-16 00:00:00 NR -15.7873 65.2079 main 927 876 __________P___ -1 -15.7873 65.2079 7 11 258
1863046S15073 1863 8 SI MM NOT_NAMED 1863-02-16 03:00:00 NR -15.9185 64.6433 main 867 802 __________P___ -1 -15.9185 64.6433 7 12 255
1863046S15073 1863 8 SI MM NOT_NAMED 1863-02-16 06:00:00 NR -16.1000 64.0000 main 802 719 __________O___ -1 -16.1000 64.0000 7 15 253
1863046S15073 1863 8 SI MM NOT_NAMED 1863-02-16 09:00:00 NR -16.3346 63.1872 main 719 623 __________P___ -1 -16.3346 63.1872 7 17 252
1863046S15073 1863 8 SI MM NOT_NAMED 1863-02-16 12:00:00 NR -16.6192 62.2952 main 623 529 __________P___ -1 -16.6192 62.2952 7 18 251
1863046S15073 1863 8 SI MM NOT_NAMED 1863-02-16 15:00:00 NR -16.9439 61.3805 main 529 430 __________P___ -1 -16.9439 61.3805 7 19 248
1863046S15073 1863 8 SI MM NOT_NAMED 1863-02-16 18:00:00 NR -17.3000 60.5000 main 430 356 __________O___ -1 -17.3000 60.5000 7 17 246
1863046S15073 1863 8 SI MM NOT_NAMED 1863-02-16 21:00:00 NR -17.6372 59.7302 main 350 271 __________P___ -1 -17.6372 59.7302 7 16 244
1863046S15073 1863 8 SI MM NOT_NAMED 1863-02-17 00:00:00 NR -18.0080 59.0023 main 271 200 __________P___ -1 -18.0080 59.0023 7 16 240
1863046S15073 1863 8 SI MM NOT_NAMED 1863-02-17 03:00:00 NR -18.4248 58.2984 main 200 134 __________P___ -1 -18.4248 58.2984 7 16 236
1863046S15073 1863 8 SI MM NOT_NAMED 1863-02-17 06:00:00 NR -18.9000 57.6000 main 134 98 __________O___ -1 -18.9000 57.6000 7 17 234
1863046S15073 1863 8 SI MM NOT_NAMED 1863-02-17 09:00:00 NR -19.4179 56.8541 main 100 99 __________P___ -1 -19.4179 56.8541 7 18 232
1863046S15073 1863 8 SI MM NOT_NAMED 1863-02-17 12:00:00 NR -19.9949 56.1115 main 119 44 __________P___ -1 -19.9949 56.1115 7 18 229
1863046S15073 1863 8 SI MM NOT_NAMED 1863-02-17 15:00:00 NR -20.6243 55.3880 main 44 23 __________P___ -1 -20.6243 55.3880 7 19 225
1863046S15073 1863 8 SI MM NOT_NAMED 1863-02-17 18:00:00 NR -21.3000 54.7000 main 56 56 __________O___ -1 -21.3000 54.7000 7 19 222
1863046S15073 1863 8 SI MM NOT_NAMED 1863-02-17 21:00:00 NR -22.0350 54.0125 main 155 155 __________P___ -1 -22.0350 54.0125 7 20 219
1863046S15073 1863 8 SI MM NOT_NAMED 1863-02-18 00:00:00 NR -22.8074 53.3671 main 257 257 __________P___ -1 -22.8074 53.3671 7 19 216
1863046S15073 1863 8 SI MM NOT_NAMED 1863-02-18 03:00:00 NR -23.5760 52.7878 main 363 363 __________P___ -1 -23.5760 52.7878 7 18 213
1863046S15073 1863 8 SI MM NOT_NAMED 1863-02-18 06:00:00 NR -24.3000 52.3000 main 454 454 __________O___ -1 -24.3000 52.3000 7 16 210
1863046S15073 1863 8 SI MM NOT_NAMED 1863-02-18 09:00:00 NR -24.9319 51.9241 main 456 448 __________P___ -1 -24.9319 51.9241 7 14 206
1863046S15073 1863 8 SI MM NOT_NAMED 1863-02-18 12:00:00 NR -25.5156 51.6407 main 446 443 __________P___ -1 -25.5156 51.6407 7 12 202
1863046S15073 1863 8 SI MM NOT_NAMED 1863-02-18 15:00:00 NR -26.0666 51.4123 main 448 441 __________P___ -1 -26.0666 51.4123 7 12 200
1863046S15073 1863 8 SI MM NOT_NAMED 1863-02-18 18:00:00 NR -26.6000 51.2000 main 447 442 __________O___ -1 -26.6000 51.2000 7 12 202
1863046S15073 1863 8 SI MM NOT_NAMED 1863-02-18 21:00:00 NR -27.1759 50.9147 main 451 449 __________P___ -1 -27.1759 50.9147 7 12 204
1863046S15073 1863 8 SI MM NOT_NAMED 1863-02-19 00:00:00 NR -27.7325 50.6407 main 460 460 __________P___ -1 -27.7325 50.6407 7 12 203
1863046S15073 1863 8 SI MM NOT_NAMED 1863-02-19 03:00:00 NR -28.2479 50.3962 main 483 483 __________P___ -1 -28.2479 50.3962 7 10 202
1863046S15073 1863 8 SI MM NOT_NAMED 1863-02-19 06:00:00 NR -28.7000 50.2000 main 511 511 __________O___ -1 -28.7000 50.2000 7 9 199
1863046S15073 1863 8 SI MM NOT_NAMED 1863-02-19 09:00:00 NR -29.0684 50.0772 main 541 541 __________P___ -1 -29.0684 50.0772 7 7 194
1863046S15073 1863 8 SI MM NOT_NAMED 1863-02-19 12:00:00 NR -29.3745 50.0031 main 564 564 __________P___ -1 -29.3745 50.0031 7 6 191
1863046S15073 1863 8 SI MM NOT_NAMED 1863-02-19 15:00:00 NR -29.6435 49.9526 main 583 583 __________P___ -1 -29.6435 49.9526 7 5 189
1863046S15073 1863 8 SI MM NOT_NAMED 1863-02-19 18:00:00 NR -29.9000 49.9000 main 607 607 __________O___ -1 -29.9000 49.9000 7 6 193
1863046S15073 1863 8 SI MM NOT_NAMED 1863-02-19 21:00:00 NR -30.1944 49.7992 main 631 631 __________P___ -1 -30.1944 49.7992 7 6 197
1863046S15073 1863 8 SI MM NOT_NAMED 1863-02-20 00:00:00 NR -30.4800 49.6927 main 656 656 __________P___ -1 -30.4800 49.6927 7 6 198
1863046S15073 1863 8 SI MM NOT_NAMED 1863-02-20 03:00:00 NR -30.7507 49.5898 main 682 682 __________P___ -1 -30.7507 49.5898 7 5 198
1863046S15073 1863 8 SI MM NOT_NAMED 1863-02-20 06:00:00 NR -31.0000 49.5000 main 699 699 __________O___ -1 -31.0000 49.5000 7 5 196
1863046S15073 1863 8 SI MM NOT_NAMED 1863-02-20 09:00:00 NR -31.2175 49.4313 main 716 716 __________P___ -1 -31.2175 49.4313 7 4 194
1863046S15073 1863 8 SI MM NOT_NAMED 1863-02-20 12:00:00 NR -31.4149 49.3772 main 737 737 __________P___ -1 -31.4149 49.3772 7 4 192
1863046S15073 1863 8 SI MM NOT_NAMED 1863-02-20 15:00:00 NR -31.6050 49.3345 main 755 755 __________P___ -1 -31.6050 49.3345 7 4 191
1863046S15073 1863 8 SI MM NOT_NAMED 1863-02-20 18:00:00 NR -31.8000 49.3000 main 776 776 __________O___ -1 -31.8000 49.3000 7 4 189
1863046S15073 1863 8 SI MM NOT_NAMED 1863-02-20 21:00:00 NR -32.0097 49.2708 main 797 797 __________P___ -1 -32.0097 49.2708 7 4 186
1863046S15073 1863 8 SI MM NOT_NAMED 1863-02-21 00:00:00 NR -32.2325 49.2452 main 815 815 __________P___ -1 -32.2325 49.2452 7 5 185
1863046S15073 1863 8 SI MM NOT_NAMED 1863-02-21 03:00:00 NR -32.4641 49.2220 main 847 847 __________P___ -1 -32.4641 49.2220 7 5 186
1863046S15073 1863 8 SI MM NOT_NAMED 1863-02-21 06:00:00 NR -32.7000 49.2000 main 868 __________O___ -1 -32.7000 49.2000 7 5 186

IBTrACS Databaseについて

本データベースは、米国NOAAが公開する1842年以降の世界の熱帯低気圧のベストトラックデータアーカイブInternational Best Track Archive for Climate Stewardship (IBTrACS)を、ウェブで閲覧しやすい形式に変換したものです。

最終更新日:2021-12-03